createdAt,value
2019-05-28T00:03:35.622Z,19.24
2019-05-28T00:08:40.268Z,19.30
2019-05-28T00:13:45.007Z,19.20
2019-05-28T00:18:49.750Z,18.72
2019-05-28T00:23:54.498Z,18.97
2019-05-28T00:28:59.342Z,18.86
2019-05-28T00:34:04.086Z,18.27
2019-05-28T00:39:10.262Z,18.25
2019-05-28T00:44:15.110Z,18.16
2019-05-28T00:49:20.688Z,18.76
2019-05-28T00:54:26.545Z,17.84
2019-05-28T00:59:31.176Z,18.38
2019-05-28T01:04:35.824Z,18.06
2019-05-28T01:09:40.570Z,18.09
2019-05-28T01:14:45.314Z,18.23
2019-05-28T01:19:50.055Z,18.16
2019-05-28T01:24:54.606Z,17.77
2019-05-28T01:29:59.240Z,18.07
2019-05-28T01:35:04.939Z,17.56
2019-05-28T01:40:09.853Z,18.34
2019-05-28T01:45:15.453Z,17.62
2019-05-28T01:50:20.153Z,17.67
2019-05-28T01:55:24.903Z,17.37
2019-05-28T02:00:29.643Z,17.48
2019-05-28T02:05:34.387Z,17.98
2019-05-28T02:10:39.127Z,16.95
2019-05-28T02:15:45.407Z,17.71
2019-05-28T02:20:50.151Z,17.75
2019-05-28T02:25:54.798Z,16.69
2019-05-28T02:30:59.540Z,17.54
2019-05-28T02:36:04.163Z,17.43
2019-05-28T02:41:09.026Z,18.00
2019-05-28T02:46:13.607Z,17.70
2019-05-28T02:51:18.198Z,18.00
2019-05-28T02:56:22.843Z,17.77
2019-05-28T03:01:42.788Z,17.71
2019-05-28T03:06:34.788Z,17.32
2019-05-28T03:11:39.531Z,17.88
2019-05-28T03:16:44.275Z,17.95
2019-05-28T03:21:49.019Z,17.96
2019-05-28T03:26:53.816Z,18.11
2019-05-28T03:32:08.438Z,17.90
2019-05-28T03:37:04.793Z,17.43
2019-05-28T03:42:09.531Z,18.13
2019-05-28T03:47:14.235Z,18.21
2019-05-28T03:52:19.017Z,17.66
2019-05-28T03:57:24.210Z,18.46
2019-05-28T04:02:30.000Z,18.75
2019-05-28T04:07:34.995Z,18.40
2019-05-28T04:12:39.735Z,19.14
2019-05-28T04:17:45.957Z,19.52
2019-05-28T04:22:51.382Z,19.57
2019-05-28T04:27:56.024Z,19.25
2019-05-28T04:33:01.780Z,19.70
2019-05-28T04:38:06.519Z,20.16
2019-05-28T04:43:11.433Z,20.71
2019-05-28T04:48:17.445Z,21.06
2019-05-28T04:53:22.087Z,21.05
2019-05-28T04:58:26.828Z,21.05
2019-05-28T05:03:31.634Z,21.49
2019-05-28T05:08:37.547Z,21.77
2019-05-28T05:13:42.287Z,22.10
2019-05-28T05:18:47.031Z,22.05
2019-05-28T05:23:51.666Z,22.33
2019-05-28T05:28:56.313Z,22.26
2019-05-28T05:34:01.056Z,22.03
2019-05-28T05:39:08.024Z,22.15
2019-05-28T05:44:12.797Z,22.38
2019-05-28T05:49:17.542Z,22.46
2019-05-28T05:54:22.288Z,23.05
2019-05-28T05:59:27.032Z,23.17
2019-05-28T06:04:33.446Z,24.17
2019-05-28T06:09:38.159Z,23.91
2019-05-28T06:14:42.922Z,24.45
2019-05-28T06:19:48.515Z,24.81
2019-05-28T06:24:53.207Z,24.92
2019-05-28T06:29:57.943Z,25.11
2019-05-28T06:35:02.696Z,25.30
2019-05-28T06:40:08.352Z,25.40
2019-05-28T06:45:13.414Z,25.93
2019-05-28T06:50:18.061Z,26.12
2019-05-28T06:55:22.796Z,26.52
2019-05-28T07:00:27.547Z,26.70
2019-05-28T07:05:32.401Z,27.00
2019-05-28T07:10:37.058Z,26.62
2019-05-28T07:15:41.775Z,27.36
2019-05-28T07:20:46.581Z,27.53
2019-05-28T07:25:51.364Z,27.76
2019-05-28T07:30:55.916Z,27.70
2019-05-28T07:36:00.649Z,27.98
2019-05-28T07:41:05.230Z,28.37
2019-05-28T07:46:10.854Z,28.49
2019-05-28T07:51:15.488Z,28.76
2019-05-28T07:56:20.136Z,29.00
2019-05-28T08:01:24.884Z,28.80
2019-05-28T08:06:29.729Z,29.32
2019-05-28T08:11:35.391Z,29.38
2019-05-28T08:16:51.890Z,29.62
2019-05-28T08:21:46.434Z,29.34
2019-05-28T08:26:51.162Z,28.68
2019-05-28T08:31:55.904Z,29.85
2019-05-28T08:37:05.998Z,29.97
2019-05-28T08:42:06.937Z,30.46
2019-05-28T08:47:11.678Z,30.44
2019-05-28T08:52:16.423Z,31.02
2019-05-28T08:57:21.163Z,30.29
2019-05-28T09:02:28.279Z,30.84
2019-05-28T09:07:32.079Z,31.03
2019-05-28T09:12:36.747Z,31.56
2019-05-28T09:17:41.331Z,31.73
2019-05-28T09:22:46.023Z,30.15
2019-05-28T09:27:50.766Z,31.13
2019-05-28T09:32:55.697Z,29.97
2019-05-28T09:38:02.338Z,31.00
2019-05-28T09:43:07.348Z,31.06
2019-05-28T09:48:12.279Z,31.72
2019-05-28T09:53:17.446Z,31.82
2019-05-28T09:58:22.197Z,32.20
2019-05-28T10:03:26.931Z,31.70
2019-05-28T10:08:32.237Z,31.65
2019-05-28T10:13:41.202Z,31.38
2019-05-28T10:18:44.513Z,32.12
2019-05-28T10:23:49.306Z,32.02
2019-05-28T10:28:53.903Z,30.99
2019-05-28T10:33:59.161Z,31.70
2019-05-28T10:39:06.885Z,31.68
2019-05-28T10:44:11.973Z,32.09
2019-05-28T10:49:17.067Z,31.88
2019-05-28T10:54:21.861Z,31.47
2019-05-28T10:59:26.761Z,31.93
2019-05-28T11:04:31.554Z,32.04
2019-05-28T11:09:38.242Z,32.71
2019-05-28T11:14:44.974Z,32.85
2019-05-28T11:19:50.138Z,33.02
2019-05-28T11:24:54.943Z,33.63
2019-05-28T11:29:59.629Z,33.36
2019-05-28T11:35:05.249Z,33.40
2019-05-28T11:40:11.237Z,33.17
2019-05-28T11:45:18.321Z,33.07
2019-05-28T11:50:23.682Z,33.50
2019-05-28T11:55:28.930Z,32.65
2019-05-28T12:00:34.523Z,32.60
2019-05-28T12:05:39.346Z,32.73
2019-05-28T12:10:45.423Z,31.92
2019-05-28T12:15:50.206Z,31.44
2019-05-28T12:20:55.848Z,31.85
2019-05-28T12:26:02.622Z,33.30
2019-05-28T12:31:08.066Z,32.69
2019-05-28T12:36:13.354Z,33.36
2019-05-28T12:41:18.465Z,33.74
2019-05-28T12:46:23.456Z,33.88
2019-05-28T12:51:28.389Z,33.79
2019-05-28T12:56:33.864Z,33.87
2019-05-28T13:01:39.150Z,33.48
2019-05-28T13:06:44.160Z,32.74
2019-05-28T13:11:50.759Z,32.12
2019-05-28T13:16:55.576Z,32.20
2019-05-28T13:22:00.410Z,32.37
2019-05-28T13:27:17.447Z,33.30
2019-05-28T13:32:12.448Z,32.82
2019-05-28T13:37:17.567Z,33.32
2019-05-28T13:42:22.673Z,32.30
2019-05-28T13:47:33.710Z,32.60
2019-05-28T13:52:35.809Z,32.87
2019-05-28T13:57:41.083Z,32.70
2019-05-28T14:02:46.938Z,32.58
2019-05-28T14:07:53.997Z,32.48
2019-05-28T14:12:59.502Z,32.13
2019-05-28T14:18:04.762Z,32.63
2019-05-28T14:23:09.578Z,31.23
2019-05-28T14:28:15.193Z,31.22
2019-05-28T14:33:20.318Z,30.33
2019-05-28T14:38:26.704Z,30.19
2019-05-28T14:43:32.403Z,30.75
2019-05-28T14:48:37.898Z,30.67
2019-05-28T14:53:43.148Z,30.33
2019-05-28T14:58:49.394Z,31.23
2019-05-28T15:03:54.559Z,31.49
2019-05-28T15:09:00.009Z,30.71
2019-05-28T15:14:06.418Z,31.24
2019-05-28T15:19:11.593Z,30.35
2019-05-28T15:24:16.426Z,30.87
2019-05-28T15:29:21.501Z,30.84
2019-05-28T15:34:26.477Z,30.55
2019-05-28T15:39:39.680Z,30.23
2019-05-28T15:44:39.409Z,29.91
2019-05-28T15:49:44.347Z,28.67
2019-05-28T15:54:49.298Z,27.04
2019-05-28T15:59:54.543Z,26.94
2019-05-28T16:05:01.768Z,26.51
2019-05-28T16:10:11.490Z,25.69
2019-05-28T16:15:17.086Z,25.86
2019-05-28T16:20:22.564Z,25.67
2019-05-28T16:25:27.327Z,24.85
2019-05-28T16:30:32.169Z,25.11
2019-05-28T16:35:37.090Z,25.43
2019-05-28T16:40:45.409Z,24.70
2019-05-28T16:45:52.037Z,25.06
2019-05-28T16:50:57.262Z,25.43
2019-05-28T16:56:02.698Z,25.69
2019-05-28T17:01:21.741Z,25.36
2019-05-28T17:06:15.874Z,26.56
2019-05-28T17:11:20.959Z,26.79
2019-05-28T17:16:26.176Z,26.52
2019-05-28T17:21:32.670Z,26.43
2019-05-28T17:26:38.160Z,26.22
2019-05-28T17:31:43.426Z,27.10
2019-05-28T17:36:50.165Z,27.09
2019-05-28T17:41:57.186Z,27.11
2019-05-28T17:47:03.519Z,26.77
2019-05-28T17:52:10.955Z,26.47
2019-05-28T17:57:16.046Z,26.71
2019-05-28T18:02:21.431Z,26.52
2019-05-28T18:07:26.229Z,26.10
2019-05-28T18:12:31.582Z,25.80
2019-05-28T18:17:37.564Z,24.23
2019-05-28T18:22:42.353Z,25.05
2019-05-28T18:27:50.383Z,25.10
2019-05-28T18:32:55.999Z,25.16
2019-05-28T18:38:03.663Z,25.30
2019-05-28T18:43:08.610Z,25.08
2019-05-28T18:48:14.113Z,24.76
2019-05-28T18:53:19.272Z,24.74
2019-05-28T18:58:25.085Z,24.16
2019-05-28T19:03:30.316Z,23.99
2019-05-28T19:08:35.311Z,24.21
2019-05-28T19:13:41.349Z,23.99
2019-05-28T19:18:46.621Z,23.39
2019-05-28T19:23:51.741Z,22.94
2019-05-28T19:28:56.932Z,23.28
2019-05-28T19:34:02.231Z,23.13
2019-05-28T19:39:07.875Z,22.54
2019-05-28T19:44:13.005Z,22.64
2019-05-28T19:49:18.034Z,22.16
2019-05-28T19:54:22.954Z,22.93
2019-05-28T19:59:29.437Z,22.88
2019-05-28T20:04:34.721Z,22.75
2019-05-28T20:09:40.709Z,22.51
2019-05-28T20:14:46.548Z,21.72
2019-05-28T20:19:52.972Z,20.77
2019-05-28T20:24:58.774Z,21.39
2019-05-28T20:30:05.535Z,21.70
2019-05-28T20:35:11.325Z,22.08
2019-05-28T20:40:17.175Z,21.61
2019-05-28T20:45:24.258Z,20.63
2019-05-28T20:50:30.057Z,21.61
2019-05-28T20:55:35.426Z,21.76
2019-05-28T21:00:40.739Z,20.73
2019-05-28T21:05:46.208Z,21.26
2019-05-28T21:10:52.582Z,21.47
2019-05-28T21:15:59.343Z,21.13
2019-05-28T21:21:04.627Z,21.68
2019-05-28T21:26:09.566Z,21.47
2019-05-28T21:31:14.493Z,21.58
2019-05-28T21:36:19.650Z,21.31
2019-05-28T21:41:24.493Z,21.45
2019-05-28T21:46:29.233Z,21.03
2019-05-28T21:51:34.019Z,20.83
2019-05-28T21:56:38.612Z,20.81
2019-05-28T22:01:43.256Z,20.61
2019-05-28T22:06:47.999Z,20.77
2019-05-28T22:11:52.647Z,19.95
2019-05-28T22:16:59.402Z,20.14
2019-05-28T22:22:04.669Z,20.10
2019-05-28T22:27:09.640Z,20.14
2019-05-28T22:32:14.381Z,19.87
2019-05-28T22:37:19.126Z,19.65
2019-05-28T22:42:23.758Z,19.23
2019-05-28T22:47:29.430Z,19.78
2019-05-28T22:52:34.176Z,20.17
2019-05-28T22:57:38.815Z,20.10
2019-05-28T23:02:43.376Z,19.41
2019-05-28T23:07:48.102Z,20.18
2019-05-28T23:12:52.845Z,20.80
2019-05-28T23:17:57.480Z,20.39
2019-05-28T23:23:03.239Z,20.13
2019-05-28T23:28:08.204Z,20.73
2019-05-28T23:33:14.243Z,21.13
2019-05-28T23:38:19.123Z,21.29
2019-05-28T23:43:23.865Z,20.23
2019-05-28T23:48:28.607Z,20.98
2019-05-28T23:53:33.356Z,20.14
2019-05-28T23:58:38.203Z,20.46
